Etusivu
METAR-TAF:

METAR-TAF

Lentoasemat :

Acajutla, El Salvador

Leveyspiiri: 13-34N, Pituuspiiri: 089-50W, korkeus merenpinnasta: 15 m

Tämänhetkinen sää

Tämä raportti tehtiin 6 tuntia ja 53 minuuttia sitten, kello 19.50 UTC
Tuuli 9 kn lännestä
Lämpötila 34°C
Kosteus 71%
Ilmanpaine 1006 hPa
Näkyvyys 10 km tai enemmän
Muutamia pilviä 3000 ft:n korkeudessa

METAR: MSAC 211950Z 27009KT 9999 FEW030 34/28 Q1006 A2971

Aika: 20:43 (02:43 UTC)


TAF: puuttuu

Säähavainnot ja -ennusteet yli 4000 lentoasemalta (METAR- ja TAF-raportit).

Käytössä olevat sääasemat on merkitty karttaan keltaisilla ja punaisilla pisteillä.

Aseta hiiri pisteen päälle nähdäksesi sääaseman nimen.

Klikkaa sitten nähdäksesi säähavainnot ja -ennusteet.

Kartan vaihtaminen: klikkaa mustalla rastilla varustettuja vihreitä pisteitä, niin voit zoomata sisään; viivalla varustettua vihreää pistettä, niin voit zoomata ulos tai vihreitä nuolia, niin pääset viereisille kartoille.


METAR-TAF: